Aérodrome :
LOGIN :

S'inscrire | Disclaimer

   EN    FR    IT 

 










Légende :    VFR   VFR Marginal   IFR   IFR Intensif   IFR Très Intensif
Visi : 
Plafond : 
>= 8 km
>= 3000ft
5 à 8 km
1000 à 3000 ft
1500m à 5 km
500 à 1000 ft
800 à 1500m
200 à 500 ft
< 800m
< 200 ft
Symboles :   Orages  Brouillard  Fortes neiges  Fortes précipitations  Vent > 20 kt
SIGMETs :   Divers  Orages  Givrage  Turbulence  Onde Orograph.  Cendres Volcan.






- Altitude de l'aérodrome : 13 ft
- Code IATA : GOA


LIMJ - Genoa Cristoforo Colombo

DERNIER METAR :
  • 272120Z 02007KT 9999 FEW023 10/06 Q1004

METARs EXPIRÉS :
  • 272050Z 02004KT 9999 FEW023 10/06 Q1004
  • 272020Z 02007KT 9999 FEW021 11/07 Q1003
  • 271950Z 04007KT 010V070 9999 FEW020 10/06 Q1003
  • 271920Z 04007KT 9999 SCT020 10/05 Q1003
  • 271850Z 04008KT 9999 FEW018 10/06 Q1003

TAF TAF LIMJ
Valide du 27 à 18h jusqu'au 28 à 18h UTC


271700Z 2718/2818 24015KT 9999 SCT030 BKN060
BECMG 2719/2721 36010KT
BECMG 2808/2810 VRB05KT



MET'MAP, la Météo Aéronautique d'un coup d'oeil ! - Copyright ORBIFLY Décembre 2007 - Disclaimer

ORBIFLY MET'MAP TEAM :

Programmation & Développement : Alexandra Zaïnal
Sur une idée originale de : Baudouin d'Aumeries
Assistance à la programmation : Marc-Olivier Méhu
Soutien technique & logistique : Manuel Goepfert

Contact : metmap@orbifly.com




SOURCES & CREDITS :

   NOAA